Time;durP1;ratioP1;P1;durP2;ratioP2;P2;SDS_P1;SDS_P2;PMS_P1;PMS_P2;Temp;Humidity;BMP_temperature;BMP_pressure;BME280_temperature;BME280_humidity;BME280_pressure;Samples;Min_cycle;Max_cycle;Signal;HPM_P1;HPM_P2
2022/07/07 00:01:07;;;;;;;;;2.25;1.75;;;;;22.38;47.97;102076.63;4847845;29;45291;-66
2022/07/07 00:03:32;;;;;;;;;1.00;1.00;;;;;22.39;47.58;102085.69;4848033;29;45234;-66
2022/07/07 00:05:58;;;;;;;;;1.00;1.00;;;;;22.34;47.92;102093.25;4863051;29;45604;-66
2022/07/07 00:08:23;;;;;;;;;1.00;1.00;;;;;22.21;47.78;102074.03;4858997;29;45562;-66
2022/07/07 00:10:49;;;;;;;;;3.25;2.00;;;;;22.28;48.09;102085.44;4850376;29;45309;-66
2022/07/07 00:13:14;;;;;;;;;2.00;1.00;;;;;22.29;48.22;102084.50;4849325;29;45362;-66
2022/07/07 00:15:42;;;;;;;;;1.25;1.00;;;;;22.24;47.98;102078.44;4846502;29;45418;-66
2022/07/07 00:18:08;;;;;;;;;1.25;1.25;;;;;22.19;48.01;102067.84;4848853;29;47015;-67
2022/07/07 00:20:33;;;;;;;;;1.50;1.50;;;;;22.17;48.37;102070.66;4864244;29;45488;-66
2022/07/07 00:22:58;;;;;;;;;2.00;2.00;;;;;22.16;48.49;102068.88;4861092;29;45207;-66
2022/07/07 00:25:24;;;;;;;;;2.50;2.50;;;;;22.13;48.55;102066.34;4847597;29;45186;-66
2022/07/07 00:27:49;;;;;;;;;2.25;1.25;;;;;22.11;48.27;102068.28;4845833;29;47309;-66
2022/07/07 00:30:15;;;;;;;;;3.00;3.00;;;;;22.07;48.33;102068.56;4851052;29;45219;-66
2022/07/07 00:32:40;;;;;;;;;0.25;0.00;;;;;22.08;48.47;102076.63;4847448;29;45315;-66
2022/07/07 00:35:06;;;;;;;;;1.75;1.75;;;;;22.02;48.59;102066.13;4846037;29;45307;-66
2022/07/07 00:37:31;;;;;;;;;1.50;1.50;;;;;22.07;48.58;102068.56;4847206;29;45287;-66
2022/07/07 00:39:57;;;;;;;;;2.00;2.00;;;;;22.04;48.36;102068.75;4855013;29;45528;-66
2022/07/07 00:42:22;;;;;;;;;2.00;2.00;;;;;22.04;48.94;102069.63;4860673;29;45352;-66
2022/07/07 00:44:48;;;;;;;;;3.00;1.00;;;;;21.94;48.78;102046.69;4872993;29;45134;-66
2022/07/07 00:47:13;;;;;;;;;1.00;1.00;;;;;22.06;48.64;102054.09;4833500;29;47133;-66
2022/07/07 00:49:40;;;;;;;;;1.00;1.00;;;;;22.01;48.68;102045.34;4857169;29;45488;-66
2022/07/07 00:52:07;;;;;;;;;1.00;1.00;;;;;22.09;48.59;102056.63;4851794;29;45416;-66
2022/07/07 00:54:33;;;;;;;;;1.50;1.50;;;;;22.09;48.47;102055.78;4855347;29;45498;-66
2022/07/07 00:56:59;;;;;;;;;1.00;1.00;;;;;22.11;48.33;102056.53;4875011;29;45421;-66
2022/07/07 00:59:24;;;;;;;;;1.00;1.00;;;;;22.12;48.32;102055.56;4860189;29;45297;-66
2022/07/07 01:01:50;;;;;;;;;1.75;1.75;;;;;21.96;48.90;102026.59;4859438;29;45329;-66
2022/07/07 01:04:17;;;;;;;;;1.00;1.00;;;;;22.06;48.40;102032.34;4851195;29;45328;-66
2022/07/07 01:06:42;;;;;;;;;1.00;1.00;;;;;22.07;48.58;102030.50;4851777;29;45539;-66
2022/07/07 01:09:09;;;;;;;;;1.00;1.00;;;;;22.11;48.72;102029.34;4868092;29;45667;-66
2022/07/07 01:11:45;;;;;;;;;2.00;2.00;;;;;22.06;48.86;102032.34;4849311;29;45550;-66
2022/07/07 01:14:10;;;;;;;;;1.00;1.00;;;;;22.02;49.06;102028.94;4845732;29;45412;-66
2022/07/07 01:16:36;;;;;;;;;1.00;1.00;;;;;22.04;48.43;102031.56;4846956;29;46009;-66
2022/07/07 01:19:01;;;;;;;;;2.00;2.00;;;;;22.02;48.86;102022.63;4855823;29;47563;-66
2022/07/07 01:21:31;;;;;;;;;3.00;2.00;;;;;22.02;48.96;102028.06;4847825;29;45416;-66
2022/07/07 01:23:56;;;;;;;;;2.00;2.00;;;;;22.00;48.35;102024.53;4865607;29;45250;-66
2022/07/07 01:26:21;;;;;;;;;1.50;1.25;;;;;21.95;49.17;102019.41;4846863;29;46696;-66
2022/07/07 01:28:47;;;;;;;;;1.25;1.25;;;;;21.94;49.15;102027.66;4845547;29;45198;-66
2022/07/07 01:31:13;;;;;;;;;2.00;2.00;;;;;21.69;49.29;101977.47;4859173;29;45220;-66
2022/07/07 01:33:39;;;;;;;;;2.00;2.00;;;;;21.92;49.36;102029.56;4845301;29;45492;-66
2022/07/07 01:36:04;;;;;;;;;2.00;2.00;;;;;21.87;49.42;102026.25;4850354;29;46441;-66
2022/07/07 01:38:29;;;;;;;;;1.75;1.75;;;;;21.83;49.50;102018.31;4855298;29;45327;-66
2022/07/07 01:40:55;;;;;;;;;2.00;2.00;;;;;21.73;49.80;102014.34;4858073;29;45357;-66
2022/07/07 01:43:20;;;;;;;;;2.00;2.00;;;;;21.69;49.49;102010.09;4866898;29;45616;-66
2022/07/07 01:45:45;;;;;;;;;2.25;2.25;;;;;21.64;49.15;102002.19;4858824;29;46323;-66
2022/07/07 01:48:11;;;;;;;;;3.00;1.75;;;;;21.65;49.73;102006.69;4862913;29;45339;-66
2022/07/07 01:50:36;;;;;;;;;1.75;1.00;;;;;21.70;49.30;102014.56;4860504;29;45375;-66
2022/07/07 01:53:02;;;;;;;;;3.00;3.00;;;;;21.69;49.68;102015.53;4854167;29;45475;-66
2022/07/07 01:55:27;;;;;;;;;2.00;2.00;;;;;21.68;49.42;102016.47;4860886;29;46503;-66
2022/07/07 01:57:52;;;;;;;;;2.00;2.00;;;;;21.67;50.09;102014.75;4848187;29;45613;-66
2022/07/07 02:00:18;;;;;;;;;1.75;1.25;;;;;21.48;49.71;101985.06;4858089;29;47688;-66
2022/07/07 02:02:43;;;;;;;;;2.00;2.00;;;;;21.56;50.09;101993.63;4846426;29;45509;-66
2022/07/07 02:05:09;;;;;;;;;1.00;1.00;;;;;21.60;49.60;101995.22;4857181;29;45493;-66
2022/07/07 02:07:35;;;;;;;;;2.00;2.00;;;;;21.65;50.05;102003.97;4858902;29;45245;-67
2022/07/07 02:10:01;;;;;;;;;1.25;1.25;;;;;21.68;49.38;102002.03;4859896;29;45244;-66
2022/07/07 02:12:26;;;;;;;;;2.00;1.25;;;;;21.45;49.40;101958.03;4876340;29;45426;-66
2022/07/07 02:14:52;;;;;;;;;1.00;1.00;;;;;21.68;49.77;101997.47;4851424;29;45924;-66
2022/07/07 02:17:17;;;;;;;;;2.00;2.00;;;;;21.64;49.78;101990.47;4859740;29;45258;-66
2022/07/07 02:19:43;;;;;;;;;1.00;1.00;;;;;21.60;49.76;101987.06;4851303;29;45545;-66
2022/07/07 02:22:08;;;;;;;;;1.50;1.50;;;;;21.60;49.63;101989.78;4849259;29;45491;-66
2022/07/07 02:24:34;;;;;;;;;2.75;2.75;;;;;21.61;49.60;101986.06;4848017;29;47282;-66
2022/07/07 02:26:59;;;;;;;;;1.00;0.75;;;;;21.60;49.70;101988.88;4849311;29;45352;-67
2022/07/07 02:29:24;;;;;;;;;1.25;1.25;;;;;21.51;49.71;101984.00;4858433;29;45476;-66
2022/07/07 02:31:50;;;;;;;;;2.00;1.75;;;;;21.42;50.11;101979.97;4849060;29;45377;-67
2022/07/07 02:34:15;;;;;;;;;1.75;1.75;;;;;21.50;50.28;101987.69;4848871;29;45346;-66
2022/07/07 02:36:41;;;;;;;;;2.00;2.00;;;;;21.47;50.21;101983.31;4849232;29;45445;-66
2022/07/07 02:39:06;;;;;;;;;1.75;1.00;;;;;21.48;50.19;101990.47;4859217;29;45466;-66
2022/07/07 02:41:32;;;;;;;;;1.75;1.75;;;;;21.46;50.39;101985.09;4849380;29;45375;-66
2022/07/07 02:43:57;;;;;;;;;1.00;1.00;;;;;21.33;50.22;101972.34;4876350;29;46682;-66
2022/07/07 02:46:22;;;;;;;;;2.50;1.25;;;;;21.40;50.08;101996.34;4845467;29;45288;-66
2022/07/07 02:48:48;;;;;;;;;0.00;0.00;;;;;21.32;50.08;101982.34;4866232;29;45629;-66
2022/07/07 02:51:13;;;;;;;;;2.00;2.00;;;;;21.27;49.98;101974.44;4867287;29;45424;-66
2022/07/07 02:53:39;;;;;;;;;1.50;1.50;;;;;21.24;50.51;101960.19;4852026;29;45294;-66
2022/07/07 02:56:04;;;;;;;;;1.25;1.25;;;;;21.28;50.63;101986.19;4847775;29;45810;-66
2022/07/07 02:58:30;;;;;;;;;3.00;2.00;;;;;21.22;50.95;101976.56;4854379;29;45486;-66
2022/07/07 03:00:55;;;;;;;;;4.25;1.25;;;;;21.24;50.55;101987.34;4848726;29;45237;-66
2022/07/07 03:03:21;;;;;;;;;2.25;2.00;;;;;21.15;50.84;101975.19;4848533;29;46303;-66
2022/07/07 03:05:47;;;;;;;;;1.00;1.00;;;;;21.17;50.88;101981.38;4864307;29;45244;-66
2022/07/07 03:08:13;;;;;;;;;1.00;1.00;;;;;21.17;50.98;101988.66;4855313;29;45381;-66
2022/07/07 03:10:38;;;;;;;;;2.00;1.50;;;;;21.10;50.94;101983.56;4856713;29;45276;-66
2022/07/07 03:13:04;;;;;;;;;3.75;2.00;;;;;21.16;51.26;101989.63;4848359;29;45653;-66
2022/07/07 03:15:29;;;;;;;;;1.75;1.75;;;;;21.01;50.70;101969.66;4848703;29;45579;-66
2022/07/07 03:17:55;;;;;;;;;2.50;2.50;;;;;21.11;51.35;101989.88;4857600;29;45435;-66
2022/07/07 03:20:21;;;;;;;;;1.75;1.75;;;;;21.08;51.14;101988.22;4857272;29;45496;-66
2022/07/07 03:22:47;;;;;;;;;4.25;3.00;;;;;21.09;51.55;101994.53;4848335;29;45425;-66
2022/07/07 03:25:13;;;;;;;;;2.25;2.00;;;;;21.03;51.65;101986.72;4848574;29;45417;-66
2022/07/07 03:27:38;;;;;;;;;2.75;2.00;;;;;21.03;51.40;101994.84;4850286;29;45384;-66
2022/07/07 03:30:06;;;;;;;;;2.00;2.00;;;;;20.97;51.75;101989.78;4855877;29;45174;-66
2022/07/07 03:32:32;;;;;;;;;1.75;1.75;;;;;20.83;52.02;101972.44;4848122;29;46918;-66
2022/07/07 03:34:57;;;;;;;;;2.25;2.25;;;;;20.87;51.63;101973.16;4848186;29;45240;-66
2022/07/07 03:37:23;;;;;;;;;3.00;3.00;;;;;20.87;51.86;101974.03;4848035;29;45530;-66
2022/07/07 03:39:48;;;;;;;;;2.00;2.00;;;;;20.98;51.84;101987.00;4866713;29;45397;-66
2022/07/07 03:42:13;;;;;;;;;1.75;1.75;;;;;20.94;51.58;101982.69;4853013;29;45522;-66
2022/07/07 03:44:39;;;;;;;;;2.00;2.00;;;;;20.91;52.01;101982.84;4875065;29;45224;-66
2022/07/07 03:47:04;;;;;;;;;1.50;1.25;;;;;20.92;51.83;101992.75;4861435;29;45485;-66
2022/07/07 03:49:30;;;;;;;;;4.00;2.50;;;;;20.83;52.15;101972.44;4864302;29;45451;-66
2022/07/07 03:51:55;;;;;;;;;2.00;2.00;;;;;20.91;51.79;101981.03;4864299;29;46364;-66
2022/07/07 03:54:21;;;;;;;;;2.00;2.00;;;;;20.91;52.13;101974.72;4848183;29;45344;-66
2022/07/07 03:56:46;;;;;;;;;1.75;1.75;;;;;20.92;52.00;101971.06;4848008;29;45436;-66
2022/07/07 03:59:11;;;;;;;;;2.50;1.75;;;;;20.96;52.01;101978.03;4855509;29;45434;-66
2022/07/07 04:01:37;;;;;;;;;3.00;3.00;;;;;20.97;52.04;101968.09;4847791;29;45500;-66
2022/07/07 04:04:04;;;;;;;;;3.25;3.25;;;;;20.96;52.30;101972.63;4850437;29;45369;-66
2022/07/07 04:06:31;;;;;;;;;2.00;2.00;;;;;20.98;52.38;101975.25;4866542;29;45242;-66
2022/07/07 04:08:56;;;;;;;;;1.00;1.00;;;;;20.96;52.61;101978.03;4865636;29;45478;-66
2022/07/07 04:11:22;;;;;;;;;2.75;2.25;;;;;20.86;52.04;101955.97;4849094;29;47254;-66
2022/07/07 04:13:47;;;;;;;;;3.25;3.25;;;;;20.96;52.30;101971.75;4866423;29;45478;-66
2022/07/07 04:16:12;;;;;;;;;4.00;2.50;;;;;20.92;52.65;101962.91;4849448;29;45310;-66
2022/07/07 04:18:38;;;;;;;;;4.00;4.00;;;;;20.94;52.43;101969.13;4865118;29;45641;-66
2022/07/07 04:21:03;;;;;;;;;3.00;2.00;;;;;20.89;52.57;101958.50;4865799;29;45486;-66
2022/07/07 04:23:29;;;;;;;;;2.75;2.75;;;;;20.98;52.35;101972.53;4849516;29;45488;-66
2022/07/07 04:25:54;;;;;;;;;3.00;3.00;;;;;20.95;52.39;101967.28;4849456;29;45944;-66
2022/07/07 04:28:19;;;;;;;;;4.00;3.00;;;;;20.98;52.81;101975.25;4864668;29;45445;-66
2022/07/07 04:30:45;;;;;;;;;3.00;2.25;;;;;20.99;52.93;101977.00;4865284;29;45429;-66
2022/07/07 04:33:11;;;;;;;;;4.75;3.25;;;;;20.94;53.03;101973.69;4849021;29;45424;-66
2022/07/07 04:35:36;;;;;;;;;2.75;2.75;;;;;20.87;52.83;101965.88;4850251;29;45507;-66
2022/07/07 04:38:02;;;;;;;;;4.00;3.25;;;;;20.82;52.94;101964.41;4848991;29;45373;-66
2022/07/07 04:40:27;;;;;;;;;4.00;3.00;;;;;20.90;53.18;101979.28;4861767;29;46138;-66
2022/07/07 04:42:52;;;;;;;;;3.00;3.00;;;;;20.87;52.95;101978.59;4854718;29;45429;-66
2022/07/07 04:45:17;;;;;;;;;3.75;2.00;;;;;20.86;53.19;101977.69;4866030;29;45400;-66
2022/07/07 04:47:43;;;;;;;;;3.00;3.00;;;;;20.85;53.07;101980.50;4852905;29;45322;-66
2022/07/07 04:50:10;;;;;;;;;2.25;1.25;;;;;20.82;52.95;101962.53;4863623;29;46747;-66
2022/07/07 04:52:37;;;;;;;;;1.00;0.00;;;;;20.89;53.17;101985.66;4858140;29;45457;-66
2022/07/07 04:55:04;;;;;;;;;3.50;3.50;;;;;20.81;53.59;101989.78;4847240;29;45264;-66
2022/07/07 04:57:29;;;;;;;;;4.50;3.00;;;;;20.75;53.46;101976.53;4852994;29;45468;-66
2022/07/07 04:59:55;;;;;;;;;4.25;2.25;;;;;20.75;53.56;101984.66;4834926;29;47830;-66
2022/07/07 05:02:20;;;;;;;;;4.25;3.50;;;;;20.77;53.88;102005.34;4854171;29;45320;-66
2022/07/07 05:04:45;;;;;;;;;5.75;4.50;;;;;20.73;54.29;102001.94;4846268;29;45341;-66
2022/07/07 05:07:11;;;;;;;;;4.00;3.00;;;;;20.68;54.52;102000.41;4854401;29;45375;-66
2022/07/07 05:09:36;;;;;;;;;3.75;3.75;;;;;20.69;54.25;102013.91;4852025;29;45999;-66
2022/07/07 05:12:03;;;;;;;;;3.00;3.00;;;;;20.45;54.06;101975.41;4846972;29;45378;-66
2022/07/07 05:14:28;;;;;;;;;4.25;4.00;;;;;20.63;54.65;102008.84;4851430;29;45506;-66
2022/07/07 05:16:54;;;;;;;;;2.00;2.00;;;;;20.60;54.49;102008.97;4858323;29;45340;-66
2022/07/07 05:19:20;;;;;;;;;3.25;2.25;;;;;20.62;54.46;102022.44;4846783;29;46297;-66
2022/07/07 05:21:45;;;;;;;;;69.75;56.75;;;;;20.67;54.99;102023.97;4846824;29;45298;-66
2022/07/07 05:24:10;;;;;;;;;60.00;49.75;;;;;20.70;54.77;102026.50;4848544;29;45456;-66
2022/07/07 05:26:36;;;;;;;;;4.25;4.00;;;;;20.72;54.90;102013.72;4857944;29;45309;-66
2022/07/07 05:29:01;;;;;;;;;6.00;4.25;;;;;20.71;55.11;102017.44;4845687;29;47299;-66
2022/07/07 05:31:26;;;;;;;;;2.50;2.50;;;;;20.79;54.81;102024.25;4846713;29;45384;-66
2022/07/07 05:33:52;;;;;;;;;5.00;5.00;;;;;20.72;54.74;101993.88;4846380;29;45439;-66
2022/07/07 05:36:17;;;;;;;;;3.25;2.00;;;;;20.84;54.61;102023.03;4857475;29;45293;-66
2022/07/07 05:38:45;;;;;;;;;4.00;4.00;;;;;20.78;54.62;102009.81;4847069;29;46575;-66
2022/07/07 05:41:10;;;;;;;;;5.25;4.25;;;;;20.80;55.13;102013.31;4857173;29;45319;-66
2022/07/07 05:43:39;;;;;;;;;6.75;3.00;;;;;20.85;55.32;102021.22;4847883;29;45467;-71
2022/07/07 05:46:04;;;;;;;;;3.00;3.00;;;;;20.85;55.17;102026.66;4856508;29;45971;-71
2022/07/07 05:48:29;;;;;;;;;2.50;2.50;;;;;20.62;55.12;101979.91;4873964;29;45388;-71
2022/07/07 05:50:55;;;;;;;;;3.75;2.75;;;;;20.65;54.96;101989.75;4867332;29;45197;-71
2022/07/07 05:53:21;;;;;;;;;2.75;2.75;;;;;20.83;55.02;102012.25;4849180;29;45437;-70
2022/07/07 05:55:46;;;;;;;;;4.00;3.00;;;;;20.54;55.11;101971.31;4852482;29;45257;-71
2022/07/07 05:58:12;;;;;;;;;2.50;2.50;;;;;20.79;54.77;102006.13;4849433;29;45215;-71
2022/07/07 06:00:37;;;;;;;;;4.50;4.50;;;;;20.68;55.34;101993.19;4861184;29;45432;-71
2022/07/07 06:03:03;;;;;;;;;3.00;3.00;;;;;20.74;54.87;102000.09;4866283;29;45744;-75
2022/07/07 06:05:28;;;;;;;;;9.25;4.25;;;;;20.89;55.12;102039.06;4859267;29;45539;-71
2022/07/07 06:07:54;;;;;;;;;3.75;3.75;;;;;20.76;55.59;102011.72;4849385;29;46314;-70
2022/07/07 06:10:19;;;;;;;;;3.75;2.75;;;;;20.92;55.12;102039.78;4860684;29;45365;-71
2022/07/07 06:12:44;;;;;;;;;5.00;2.50;;;;;20.60;55.50;101989.97;4879618;29;45784;-70
2022/07/07 06:15:10;;;;;;;;;4.00;4.00;;;;;20.64;55.19;102002.44;4850089;29;45555;-70
2022/07/07 06:17:46;;;;;;;;;;;;;;;;;;;;;
2022/07/07 06:20:53;;;;;;;;;;;;;;;;;;;;;
2022/07/07 06:23:37;;;;;;;;;2.50;2.00;;;;;20.92;55.18;102053.34;4862272;29;45646;-71
2022/07/07 06:26:56;;;;;;;;;;;;;;;;;;;;;
2022/07/07 06:30:05;;;;;;;;;3.25;3.25;;;;;20.83;55.47;102047.53;4852304;29;74740;-71
2022/07/07 06:33:06;;;;;;;;;;;;;;;;;;;;;
2022/07/07 06:36:32;;;;;;;;;3.75;3.00;;;;;20.74;56.05;102059.78;4860297;29;68888;-71
2022/07/07 06:39:00;;;;;;;;;5.00;3.00;;;;;20.78;55.78;102063.19;4865969;29;45305;-71
2022/07/07 06:41:34;;;;;;;;;3.00;3.00;;;;;20.70;55.74;102044.63;4858002;29;46504;-71
2022/07/07 06:44:00;;;;;;;;;3.25;2.00;;;;;20.63;55.34;102025.09;4846260;29;45836;-71
2022/07/07 06:46:25;;;;;;;;;2.75;2.00;;;;;20.65;55.86;102036.75;4844257;29;45498;-71
2022/07/07 06:48:50;;;;;;;;;2.50;2.50;;;;;20.73;56.08;102049.88;4860671;29;45518;-71
2022/07/07 06:51:19;;;;;;;;;4.25;3.25;;;;;20.69;56.48;102040.16;4847711;29;47513;-71
2022/07/07 06:53:47;;;;;;;;;5.00;3.50;;;;;20.79;56.39;102067.69;4864405;29;45504;-70
2022/07/07 06:56:13;;;;;;;;;2.00;2.00;;;;;20.66;56.08;102034.91;4862749;29;46019;-71
2022/07/07 06:58:51;;;;;;;;;;;;;;;;;;;;;
2022/07/07 08:04:21;;;;;;;;;1.75;1.75;;;;;21.56;55.05;102142.19;5752617;23;45470;-68
2022/07/07 08:06:46;;;;;;;;;3.00;2.00;;;;;21.54;55.90;102127.81;4848752;29;46091;-68
2022/07/07 08:09:11;;;;;;;;;0.75;0.50;;;;;21.56;55.49;102118.59;4865468;29;45386;-68
2022/07/07 08:11:37;;;;;;;;;2.75;2.75;;;;;21.66;54.88;102129.81;4863481;29;45253;-68
2022/07/07 08:14:02;;;;;;;;;2.50;2.50;;;;;21.73;55.47;102133.06;4852587;29;45557;-68
2022/07/07 08:16:28;;;;;;;;;2.00;2.00;;;;;21.78;55.62;102125.53;4869419;29;45730;-68
2022/07/07 08:18:53;;;;;;;;;3.00;2.00;;;;;21.82;55.17;102118.97;4844465;29;45404;-71
2022/07/07 08:21:18;;;;;;;;;2.25;2.25;;;;;21.87;54.58;102126.81;4876546;29;45465;-70
2022/07/07 08:23:44;;;;;;;;;1.25;1.25;;;;;21.95;55.02;102125.44;4861999;29;45325;-70
2022/07/07 08:26:10;;;;;;;;;1.50;1.50;;;;;21.97;55.18;102117.19;4845910;29;45492;-68
2022/07/07 08:28:35;;;;;;;;;2.00;2.00;;;;;21.99;54.47;102115.25;4859820;29;45368;-68
2022/07/07 08:31:00;;;;;;;;;4.00;2.25;;;;;22.02;54.55;102110.50;4870809;29;45475;-68
2022/07/07 08:33:26;;;;;;;;;2.75;2.50;;;;;22.09;54.67;102118.31;4852763;29;45594;-68
2022/07/07 08:35:51;;;;;;;;;2.75;2.75;;;;;22.13;54.50;102115.28;4858939;29;45468;-68
2022/07/07 08:38:16;;;;;;;;;3.25;2.50;;;;;22.10;54.26;102103.72;4848157;29;45646;-68
2022/07/07 08:40:42;;;;;;;;;2.00;1.50;;;;;22.21;54.61;102106.69;4851297;29;45329;-68
2022/07/07 08:43:08;;;;;;;;;2.75;1.25;;;;;22.23;54.54;102103.88;4856866;29;45565;-68
2022/07/07 08:45:33;;;;;;;;;2.75;2.75;;;;;22.29;54.36;102111.72;4853675;29;45399;-68
2022/07/07 08:47:59;;;;;;;;;2.00;2.00;;;;;22.32;54.00;102100.63;4858217;29;45330;-68
2022/07/07 08:50:26;;;;;;;;;3.25;2.25;;;;;22.30;54.07;102102.56;4860264;29;45349;-68
2022/07/07 08:52:54;;;;;;;;;2.00;2.00;;;;;22.35;54.17;102109.50;4848452;29;45522;-68
2022/07/07 08:55:23;;;;;;;;;3.00;1.00;;;;;22.40;53.87;102120.06;4849081;29;46315;-68
2022/07/07 08:57:51;;;;;;;;;2.50;2.00;;;;;22.36;53.98;102094.03;4863093;29;45703;-68
2022/07/07 09:00:17;;;;;;;;;1.50;1.00;;;;;22.48;53.24;102127.78;4842100;29;45277;-68
2022/07/07 09:02:42;;;;;;;;;1.00;1.00;;;;;22.44;52.96;102113.50;4859145;29;45554;-66
2022/07/07 09:05:08;;;;;;;;;1.50;0.75;;;;;22.42;53.13;102111.81;4852057;29;46220;-67
2022/07/07 09:07:51;;;;;;;;;3.00;2.00;;;;;22.53;54.06;102115.63;4862571;29;45366;-65
2022/07/07 09:10:28;;;;;;;;;2.25;1.00;;;;;22.56;53.51;102120.91;4869320;29;45376;-66
2022/07/07 09:12:53;;;;;;;;;1.50;1.50;;;;;22.60;52.89;102118.00;4856554;29;45253;-68
2022/07/07 09:15:19;;;;;;;;;2.25;0.25;;;;;22.56;52.25;102106.41;4846381;29;46291;-66
2022/07/07 09:17:45;;;;;;;;;0.25;0.25;;;;;22.64;52.95;102116.84;4856614;29;45443;-68
2022/07/07 09:20:14;;;;;;;;;2.00;2.00;;;;;22.70;51.99;102108.28;4856160;29;45479;-68
2022/07/07 09:22:50;;;;;;;;;1.00;1.00;;;;;22.73;52.01;102110.81;4849440;29;45602;-68
2022/07/07 09:25:18;;;;;;;;;0.50;0.50;;;;;22.82;52.22;102115.69;4853124;29;45544;-68
2022/07/07 09:28:02;;;;;;;;;1.00;1.00;;;;;22.85;52.56;102117.34;4861558;29;45515;-68
2022/07/07 09:30:37;;;;;;;;;3.50;1.75;;;;;22.87;52.04;102124.44;4856906;29;45318;-67
2022/07/07 09:33:10;;;;;;;;;3.50;2.00;;;;;22.89;52.50;102127.94;4856193;29;46551;-68
2022/07/07 09:38:24;;;;;;;;;1.00;1.00;;;;;22.88;51.82;102125.31;4863830;29;46437;-69
2022/07/07 09:41:08;;;;;;;;;1.00;1.00;;;;;22.93;51.58;102134.06;4849460;29;45511;-68
2022/07/07 09:43:37;;;;;;;;;1.00;1.00;;;;;22.93;51.26;102142.25;4874914;29;45257;-68
2022/07/07 09:46:11;;;;;;;;;1.00;1.00;;;;;22.90;51.67;102140.59;4870213;29;45487;-68
2022/07/07 09:48:38;;;;;;;;;0.00;0.00;;;;;22.88;51.75;102133.47;4869908;29;45451;-68
2022/07/07 09:51:29;;;;;;;;;0.00;0.00;;;;;22.97;52.35;102148.38;4855804;29;45528;-68
2022/07/07 09:54:06;;;;;;;;;0.00;0.00;;;;;22.98;52.03;102152.84;4863180;29;45566;-69
2022/07/07 09:56:39;;;;;;;;;0.75;0.75;;;;;22.97;52.19;102151.97;4866294;29;46436;-68
2022/07/07 09:59:10;;;;;;;;;0.00;0.00;;;;;23.00;51.46;102165.38;4856202;29;45504;-69
2022/07/07 10:01:37;;;;;;;;;1.25;1.25;;;;;22.88;51.42;102150.69;4855491;29;45350;-68
2022/07/07 10:04:08;;;;;;;;;2.00;0.75;;;;;22.99;51.87;102170.91;4870467;29;45479;-69
2022/07/07 10:06:36;;;;;;;;;3.00;2.00;;;;;22.98;51.89;102172.78;4848752;29;45368;-69
2022/07/07 10:09:11;;;;;;;;;2.00;2.00;;;;;22.98;51.86;102169.19;4864048;29;45499;-69
2022/07/07 10:11:42;;;;;;;;;2.75;1.25;;;;;22.98;52.19;102180.94;4875460;29;45236;-68
2022/07/07 10:14:14;;;;;;;;;3.00;2.00;;;;;23.02;51.75;102187.06;4866878;29;45538;-69
2022/07/07 10:16:45;;;;;;;;;2.50;1.00;;;;;22.97;51.82;102190.09;4848592;29;45452;-68
2022/07/07 10:19:13;;;;;;;;;2.00;1.00;;;;;22.96;51.83;102187.47;4870349;29;45344;-69
2022/07/07 10:21:45;;;;;;;;;2.25;1.25;;;;;22.97;51.93;102202.81;4862272;29;45576;-68
2022/07/07 10:24:12;;;;;;;;;1.50;1.50;;;;;22.90;52.01;102191.44;4854930;29;45343;-69
2022/07/07 10:26:49;;;;;;;;;1.00;1.00;;;;;22.93;51.84;102208.44;4854930;29;46207;-69
2022/07/07 10:29:15;;;;;;;;;2.25;1.50;;;;;22.86;51.78;102207.09;4857518;29;45448;-69
2022/07/07 10:31:40;;;;;;;;;3.75;2.50;;;;;22.89;51.38;102216.94;4864269;29;45525;-69
2022/07/07 10:34:08;;;;;;;;;1.00;1.00;;;;;22.88;51.27;102224.19;4857227;29;45617;-69
2022/07/07 10:36:46;;;;;;;;;1.00;1.00;;;;;22.86;51.72;102231.59;4852886;29;45481;-69
2022/07/07 10:39:13;;;;;;;;;1.25;1.25;;;;;22.78;51.16;102223.00;4865231;29;45385;-69
2022/07/07 10:41:40;;;;;;;;;2.00;1.50;;;;;22.87;51.46;102224.28;4863569;29;45478;-69
2022/07/07 10:44:09;;;;;;;;;2.00;1.75;;;;;22.88;51.89;102240.53;4875891;29;45437;-70
2022/07/07 10:46:36;;;;;;;;;1.75;1.75;;;;;22.84;51.55;102224.50;4873421;29;45432;-69
2022/07/07 10:49:10;;;;;;;;;1.00;1.00;;;;;22.85;51.25;102231.69;4862254;29;45383;-69
2022/07/07 10:51:54;;;;;;;;;2.00;2.00;;;;;22.92;51.31;102239.38;4836312;29;45465;-69
2022/07/07 10:54:38;;;;;;;;;1.00;1.00;;;;;22.92;51.59;102239.38;4859777;29;45510;-69
2022/07/07 10:57:05;;;;;;;;;1.00;1.00;;;;;22.97;51.51;102240.94;4865278;29;45450;-69
2022/07/07 10:59:56;;;;;;;;;2.00;2.00;;;;;22.96;52.05;102241.94;4851319;29;45806;-69
2022/07/07 11:02:40;;;;;;;;;2.00;2.00;;;;;22.98;51.49;102234.53;4850227;29;45466;-69
2022/07/07 11:05:14;;;;;;;;;0.25;0.25;;;;;22.99;50.84;102241.72;4847149;29;45446;-69
2022/07/07 11:07:42;;;;;;;;;1.00;1.00;;;;;22.96;51.49;102247.38;4854815;29;45825;-69
2022/07/07 11:10:13;;;;;;;;;2.00;2.00;;;;;22.97;51.43;102254.56;4853884;29;45563;-68
2022/07/07 11:12:46;;;;;;;;;1.25;1.25;;;;;22.91;51.10;102236.75;4850255;29;45575;-69
2022/07/07 11:15:14;;;;;;;;;1.50;1.50;;;;;22.98;51.12;102250.88;4858892;29;45419;-69
2022/07/07 11:17:44;;;;;;;;;3.00;3.00;;;;;22.89;51.11;102241.44;4852453;29;48134;-68
2022/07/07 11:20:15;;;;;;;;;1.25;1.25;;;;;22.92;51.09;102253.00;4843452;29;45483;-68
2022/07/07 11:22:49;;;;;;;;;2.00;2.00;;;;;22.97;51.33;102258.19;4855950;29;45467;-69
2022/07/07 11:25:19;;;;;;;;;2.25;2.00;;;;;22.89;51.40;102244.16;4856384;29;45442;-69
2022/07/07 11:27:46;;;;;;;;;2.00;2.00;;;;;22.98;51.33;102256.31;4860110;29;46865;-69
2022/07/07 11:30:13;;;;;;;;;3.75;2.75;;;;;22.98;51.03;102256.31;4862952;29;45496;-69
2022/07/07 11:32:40;;;;;;;;;2.00;2.00;;;;;22.94;51.30;102250.19;4857151;29;45342;-69
2022/07/07 11:35:13;;;;;;;;;2.25;2.00;;;;;22.96;51.39;102253.69;4865787;29;45521;-69
2022/07/07 11:37:42;;;;;;;;;3.00;3.00;;;;;23.01;51.38;102250.69;4836592;29;46900;-69
2022/07/07 11:40:14;;;;;;;;;3.00;3.00;;;;;23.06;50.97;102257.63;4861782;29;45443;-69
2022/07/07 11:42:42;;;;;;;;;3.75;3.75;;;;;23.08;50.61;102257.53;4862821;29;45373;-69
2022/07/07 11:45:27;;;;;;;;;3.75;2.00;;;;;23.02;50.56;102247.88;4866181;29;45318;-69
2022/07/07 11:48:02;;;;;;;;;5.00;3.00;;;;;23.08;50.17;102266.56;4856229;29;46329;-70
2022/07/07 11:50:32;;;;;;;;;3.25;3.25;;;;;23.07;50.29;102262.13;4861843;29;45516;-69
2022/07/07 11:53:00;;;;;;;;;1.75;1.00;;;;;22.99;50.32;102252.59;4851748;29;45782;-69
2022/07/07 11:55:26;;;;;;;;;4.25;3.50;;;;;23.06;50.21;102259.47;4857411;29;45524;-69
2022/07/07 11:58:03;;;;;;;;;2.25;2.25;;;;;23.16;50.56;102267.97;4857489;29;45799;-69
2022/07/07 12:00:33;;;;;;;;;3.25;2.25;;;;;23.16;50.19;102266.13;4864511;29;45510;-70
2022/07/07 12:03:03;;;;;;;;;2.00;2.00;;;;;23.15;50.00;102263.50;4861940;29;45472;-71
2022/07/07 12:05:46;;;;;;;;;4.50;4.50;;;;;23.12;49.93;102256.38;4833720;29;45505;-69
2022/07/07 12:08:13;;;;;;;;;2.50;2.25;;;;;23.12;49.97;102254.53;4860990;29;46036;-70
2022/07/07 12:10:49;;;;;;;;;4.25;2.25;;;;;23.25;49.86;102275.56;4857905;29;45583;-69
2022/07/07 12:13:15;;;;;;;;;3.00;3.00;;;;;23.24;49.98;102279.28;4838340;29;45672;-68
2022/07/07 12:15:48;;;;;;;;;3.50;2.50;;;;;23.20;49.70;102261.34;4860585;29;45529;-67
2022/07/07 12:18:20;;;;;;;;;3.25;3.25;;;;;23.29;49.94;102280.72;4854174;29;46067;-67
2022/07/07 12:20:55;;;;;;;;;3.00;2.50;;;;;23.31;49.87;102276.06;4852828;29;45767;-67
2022/07/07 12:23:21;;;;;;;;;2.00;2.00;;;;;23.32;49.17;102279.66;4843824;29;45808;-67
2022/07/07 12:25:47;;;;;;;;;3.00;2.00;;;;;23.27;49.10;102270.88;4847769;29;45741;-67
2022/07/07 12:28:12;;;;;;;;;3.00;3.00;;;;;23.34;49.35;102279.56;4854223;29;45568;-68
2022/07/07 12:30:56;;;;;;;;;1.50;1.00;;;;;23.33;49.27;102278.69;4858169;29;45570;-68
2022/07/07 12:33:40;;;;;;;;;1.50;1.50;;;;;23.34;48.72;102275.00;4857709;29;45532;-67
2022/07/07 12:36:17;;;;;;;;;3.25;2.00;;;;;23.37;49.28;102287.53;4863652;29;45843;-67
2022/07/07 12:38:47;;;;;;;;;2.75;2.50;;;;;23.39;48.96;102288.31;4836799;29;47045;-67
2022/07/07 12:41:32;;;;;;;;;2.75;1.50;;;;;23.40;49.15;102290.09;4851548;29;45816;-67
2022/07/07 12:44:12;;;;;;;;;3.00;2.50;;;;;23.36;48.81;102293.97;4865994;29;45429;-68